createdAt,value
2018-11-28T00:00:40.835Z,1001.42
2018-11-28T00:01:40.827Z,1001.49
2018-11-28T00:02:40.812Z,1001.44
2018-11-28T00:03:40.812Z,1001.43
2018-11-28T00:04:40.795Z,1001.51
2018-11-28T00:05:40.822Z,1001.50
2018-11-28T00:06:40.772Z,1001.39
2018-11-28T00:07:40.764Z,1001.44
2018-11-28T00:08:40.751Z,1001.44
2018-11-28T00:09:40.741Z,1001.49
2018-11-28T00:10:40.741Z,1001.39
2018-11-28T00:11:40.959Z,1001.42
2018-11-28T00:12:40.768Z,1001.43
2018-11-28T00:13:40.694Z,1001.41
2018-11-28T00:14:40.694Z,1001.41
2018-11-28T00:15:40.676Z,1001.33
2018-11-28T00:16:40.662Z,1001.29
2018-11-28T00:17:40.710Z,1001.29
2018-11-28T00:18:40.659Z,1001.27
2018-11-28T00:19:40.636Z,1001.24
2018-11-28T00:20:40.629Z,1001.23
2018-11-28T00:21:40.610Z,1001.20
2018-11-28T00:22:40.601Z,1001.23
2018-11-28T00:23:40.631Z,1001.23
2018-11-28T00:24:40.617Z,1001.22
2018-11-28T00:25:40.583Z,1001.20
2018-11-28T00:26:40.575Z,1001.15
2018-11-28T00:27:40.550Z,1001.16
2018-11-28T00:28:40.553Z,1001.18
2018-11-28T00:29:40.569Z,1001.22
2018-11-28T00:30:40.526Z,1001.21
2018-11-28T00:31:40.505Z,1001.19
2018-11-28T00:32:40.527Z,1001.22
2018-11-28T00:33:40.485Z,1001.22
2018-11-28T00:34:40.476Z,1001.21
2018-11-28T00:35:40.500Z,1001.21
2018-11-28T00:36:40.452Z,1001.19
2018-11-28T00:37:40.439Z,1001.18
2018-11-28T00:38:40.449Z,1001.13
2018-11-28T00:39:40.418Z,1001.12
2018-11-28T00:40:40.410Z,1001.08
2018-11-28T00:41:40.442Z,1001.14
2018-11-28T00:42:40.389Z,1001.08
2018-11-28T00:43:40.383Z,1001.07
2018-11-28T00:44:40.383Z,1001.08
2018-11-28T00:45:40.357Z,1001.04
2018-11-28T00:46:40.347Z,1001.12
2018-11-28T00:47:40.370Z,1001.10
2018-11-28T00:48:40.324Z,1001.08
2018-11-28T00:49:40.316Z,1001.08
2018-11-28T00:50:40.307Z,1001.12
2018-11-28T00:51:40.289Z,1001.20
2018-11-28T00:52:40.279Z,1001.24
2018-11-28T00:53:40.324Z,1001.21
2018-11-28T00:54:40.257Z,1001.16
2018-11-28T00:55:40.256Z,1001.13
2018-11-28T00:56:40.249Z,1001.12
2018-11-28T00:57:40.289Z,1001.10
2018-11-28T00:58:40.219Z,1001.12
2018-11-28T00:59:40.250Z,1001.08
2018-11-28T01:00:40.191Z,1001.09
2018-11-28T01:01:40.186Z,1001.05
2018-11-28T01:02:40.182Z,1001.10
2018-11-28T01:03:40.166Z,1001.04
2018-11-28T01:04:40.189Z,1001.09
2018-11-28T01:05:40.194Z,1001.05
2018-11-28T01:06:40.136Z,1001.06
2018-11-28T01:07:40.128Z,1001.08
2018-11-28T01:08:40.115Z,1001.04
2018-11-28T01:09:40.117Z,1001.02
2018-11-28T01:10:40.091Z,1001.07
2018-11-28T01:11:40.126Z,1001.03
2018-11-28T01:12:40.070Z,1000.97
2018-11-28T01:13:40.069Z,1000.94
2018-11-28T01:14:40.048Z,1000.92
2018-11-28T01:15:40.033Z,1000.92
2018-11-28T01:16:40.042Z,1000.93
2018-11-28T01:17:40.044Z,1000.96
2018-11-28T01:18:40.013Z,1000.96
2018-11-28T01:19:40.004Z,1000.97
2018-11-28T01:20:39.987Z,1000.99
2018-11-28T01:21:39.983Z,1000.95
2018-11-28T01:22:39.961Z,1000.93
2018-11-28T01:23:40.001Z,1000.91
2018-11-28T01:24:39.940Z,1000.91
2018-11-28T01:25:39.954Z,1000.92
2018-11-28T01:26:39.926Z,1000.90
2018-11-28T01:27:39.914Z,1000.89
2018-11-28T01:28:39.905Z,1000.88
2018-11-28T01:29:39.925Z,1000.91
2018-11-28T01:30:39.907Z,1000.89
2018-11-28T01:31:39.893Z,1000.88
2018-11-28T01:32:39.860Z,1000.87
2018-11-28T01:33:39.851Z,1000.90
2018-11-28T01:34:39.835Z,1000.94
2018-11-28T01:35:39.865Z,1000.91
2018-11-28T01:36:39.820Z,1000.98
2018-11-28T01:37:39.819Z,1000.98
2018-11-28T01:38:39.803Z,1000.98
2018-11-28T01:39:39.796Z,1001.00
2018-11-28T01:40:39.781Z,1000.91
2018-11-28T01:41:39.956Z,1000.94
2018-11-28T01:42:39.749Z,1000.95
2018-11-28T01:43:39.738Z,1000.92
2018-11-28T01:44:39.728Z,1000.95
2018-11-28T01:45:39.718Z,1000.91
2018-11-28T01:46:39.719Z,1000.87
2018-11-28T01:47:39.739Z,1000.90
2018-11-28T01:48:39.732Z,1000.91
2018-11-28T01:49:39.674Z,1000.89
2018-11-28T01:50:39.661Z,1000.92
2018-11-28T01:51:39.658Z,1000.93
2018-11-28T01:52:39.646Z,1000.95
2018-11-28T01:53:39.819Z,1000.91
2018-11-28T01:54:39.620Z,1000.93
2018-11-28T01:55:39.609Z,1000.93
2018-11-28T01:56:39.605Z,1000.92
2018-11-28T01:57:39.592Z,1000.96
2018-11-28T01:58:39.579Z,1000.89
2018-11-28T01:59:39.639Z,1000.96
2018-11-28T02:00:39.556Z,1000.90
2018-11-28T02:01:39.544Z,1000.90
2018-11-28T02:02:39.537Z,1000.92
2018-11-28T02:03:39.533Z,1000.91
2018-11-28T02:04:39.515Z,1000.92
2018-11-28T02:05:39.567Z,1000.91
2018-11-28T02:06:39.493Z,1000.89
2018-11-28T02:07:39.483Z,1000.88
2018-11-28T02:08:39.477Z,1000.89
2018-11-28T02:09:39.459Z,1000.85
2018-11-28T02:10:39.457Z,1000.86
2018-11-28T02:11:39.496Z,1000.85
2018-11-28T02:12:39.437Z,1000.83
2018-11-28T02:13:39.415Z,1000.78
2018-11-28T02:14:39.410Z,1000.77
2018-11-28T02:15:39.403Z,1000.82
2018-11-28T02:16:39.383Z,1000.81
2018-11-28T02:17:39.537Z,1000.74
2018-11-28T02:18:39.372Z,1000.68
2018-11-28T02:19:39.365Z,1000.74
2018-11-28T02:20:39.355Z,1000.75
2018-11-28T02:21:39.330Z,1000.74
2018-11-28T02:22:39.321Z,1000.75
2018-11-28T02:23:39.354Z,1000.79
2018-11-28T02:24:39.300Z,1000.78
2018-11-28T02:25:39.290Z,1000.80
2018-11-28T02:26:39.289Z,1000.82
2018-11-28T02:27:39.273Z,1000.83
2018-11-28T02:28:39.258Z,1000.77
2018-11-28T02:29:39.293Z,1000.82
2018-11-28T02:30:39.238Z,1000.82
2018-11-28T02:31:39.227Z,1000.83
2018-11-28T02:32:39.232Z,1000.76
2018-11-28T02:33:39.206Z,1000.76
2018-11-28T02:34:39.192Z,1000.73
2018-11-28T02:35:39.225Z,1000.76
2018-11-28T02:36:39.174Z,1000.78
2018-11-28T02:37:39.173Z,1000.75
2018-11-28T02:38:39.166Z,1000.76
2018-11-28T02:39:39.156Z,1000.77
2018-11-28T02:40:39.139Z,1000.77
2018-11-28T02:41:39.173Z,1000.76
2018-11-28T02:42:39.109Z,1000.71
2018-11-28T02:43:39.099Z,1000.78
2018-11-28T02:44:39.090Z,1000.79
2018-11-28T02:45:39.080Z,1000.73
2018-11-28T02:46:39.076Z,1000.79
2018-11-28T02:47:39.086Z,1000.76
2018-11-28T02:48:39.042Z,1000.79
2018-11-28T02:49:39.034Z,1000.82
2018-11-28T02:50:39.027Z,1000.80
2018-11-28T02:51:39.018Z,1000.79
2018-11-28T02:52:39.049Z,1000.83
2018-11-28T02:53:39.040Z,1000.80
2018-11-28T02:54:38.983Z,1000.72
2018-11-28T02:55:38.969Z,1000.75
2018-11-28T02:56:38.960Z,1000.73
2018-11-28T02:57:38.955Z,1000.70
2018-11-28T02:58:38.950Z,1000.74
2018-11-28T02:59:38.975Z,1000.73
2018-11-28T03:00:38.917Z,1000.75
2018-11-28T03:01:38.902Z,1000.73
2018-11-28T03:02:38.906Z,1000.70
2018-11-28T03:03:38.886Z,1000.66
2018-11-28T03:04:38.896Z,1000.72
2018-11-28T03:05:38.917Z,1000.72
2018-11-28T03:06:38.887Z,1000.70
2018-11-28T03:07:38.853Z,1000.75
2018-11-28T03:08:38.837Z,1000.73
2018-11-28T03:09:38.833Z,1000.73
2018-11-28T03:10:38.810Z,1000.77
2018-11-28T03:11:38.841Z,1000.70
2018-11-28T03:12:38.798Z,1000.74
2018-11-28T03:13:38.788Z,1000.74
2018-11-28T03:14:38.771Z,1000.76
2018-11-28T03:15:38.753Z,1000.71
2018-11-28T03:16:38.743Z,1000.80
2018-11-28T03:17:38.794Z,1000.75
2018-11-28T03:18:38.737Z,1000.78
2018-11-28T03:19:38.758Z,1000.84
2018-11-28T03:20:38.728Z,1000.79
2018-11-28T03:21:38.701Z,1000.80
2018-11-28T03:22:38.684Z,1000.78
2018-11-28T03:23:38.709Z,1000.76
2018-11-28T03:24:38.666Z,1000.82
2018-11-28T03:25:38.652Z,1000.84
2018-11-28T03:26:38.660Z,1000.84
2018-11-28T03:27:38.628Z,1000.81
2018-11-28T03:28:38.619Z,1000.87
2018-11-28T03:29:38.926Z,1000.80
2018-11-28T03:30:38.599Z,1000.81
2018-11-28T03:31:38.589Z,1000.82
2018-11-28T03:32:38.593Z,1000.71
2018-11-28T03:33:38.568Z,1000.75
2018-11-28T03:34:38.553Z,1000.67
2018-11-28T03:35:38.573Z,1000.71
2018-11-28T03:36:38.530Z,1000.67
2018-11-28T03:37:38.522Z,1000.69
2018-11-28T03:38:38.543Z,1000.61
2018-11-28T03:39:38.507Z,1000.64
2018-11-28T03:40:38.490Z,1000.63
2018-11-28T03:41:38.541Z,1000.59
2018-11-28T03:42:38.468Z,1000.57
2018-11-28T03:43:38.464Z,1000.56
2018-11-28T03:44:38.453Z,1000.53
2018-11-28T03:45:38.456Z,1000.51
2018-11-28T03:46:38.422Z,1000.55
2018-11-28T03:47:38.453Z,1000.52
2018-11-28T03:48:38.405Z,1000.54
2018-11-28T03:49:38.400Z,1000.55
2018-11-28T03:50:38.394Z,1000.59
2018-11-28T03:51:38.390Z,1000.59
2018-11-28T03:52:38.362Z,1000.58
2018-11-28T03:53:38.400Z,1000.63
2018-11-28T03:54:38.340Z,1000.56
2018-11-28T03:55:38.329Z,1000.53
2018-11-28T03:56:38.322Z,1000.58
2018-11-28T03:57:38.316Z,1000.56
2018-11-28T03:58:38.299Z,1000.51
2018-11-28T03:59:38.475Z,1000.52
2018-11-28T04:00:38.277Z,1000.51
2018-11-28T04:01:38.269Z,1000.53
2018-11-28T04:02:38.255Z,1000.49
2018-11-28T04:03:38.252Z,1000.47
2018-11-28T04:04:38.235Z,1000.42
2018-11-28T04:05:38.288Z,1000.45
2018-11-28T04:06:38.211Z,1000.40
2018-11-28T04:07:38.207Z,1000.45
2018-11-28T04:08:38.198Z,1000.46
2018-11-28T04:09:38.181Z,1000.46
2018-11-28T04:10:38.179Z,1000.53
2018-11-28T04:11:38.215Z,1000.50
2018-11-28T04:12:38.154Z,1000.51
2018-11-28T04:13:38.140Z,1000.48
2018-11-28T04:14:38.136Z,1000.47
2018-11-28T04:15:38.122Z,1000.44
2018-11-28T04:16:38.104Z,1000.46
2018-11-28T04:17:38.273Z,1000.51
2018-11-28T04:18:38.096Z,1000.52
2018-11-28T04:19:38.077Z,1000.50
2018-11-28T04:20:38.060Z,1000.47
2018-11-28T04:21:38.052Z,1000.48
2018-11-28T04:22:38.045Z,1000.56
2018-11-28T04:23:38.076Z,1000.52
2018-11-28T04:24:38.032Z,1000.49
2018-11-28T04:25:38.021Z,1000.48
2018-11-28T04:26:37.997Z,1000.50
2018-11-28T04:27:38.004Z,1000.53
2018-11-28T04:28:37.981Z,1000.49
2018-11-28T04:29:38.025Z,1000.44
2018-11-28T04:30:37.967Z,1000.45
2018-11-28T04:31:37.947Z,1000.41
2018-11-28T04:32:37.947Z,1000.42
2018-11-28T04:33:37.927Z,1000.39
2018-11-28T04:34:37.912Z,1000.43
2018-11-28T04:35:37.978Z,1000.49
2018-11-28T04:36:37.900Z,1000.44
2018-11-28T04:37:37.882Z,1000.51
2018-11-28T04:38:37.878Z,1000.44
2018-11-28T04:39:37.861Z,1000.46
2018-11-28T04:40:37.856Z,1000.47
2018-11-28T04:41:37.906Z,1000.46
2018-11-28T04:42:37.834Z,1000.42
2018-11-28T04:43:37.825Z,1000.42
2018-11-28T04:44:37.816Z,1000.46
2018-11-28T04:45:37.798Z,1000.48
2018-11-28T04:46:37.800Z,1000.51
2018-11-28T04:47:37.843Z,1000.45
2018-11-28T04:48:37.770Z,1000.50
2018-11-28T04:49:37.758Z,1000.50
2018-11-28T04:50:37.745Z,1000.43
2018-11-28T04:51:37.736Z,1000.45
2018-11-28T04:52:37.724Z,1000.48
2018-11-28T04:53:37.754Z,1000.36
2018-11-28T04:54:37.715Z,1000.41
2018-11-28T04:55:37.691Z,1000.43
2018-11-28T04:56:37.690Z,1000.45
2018-11-28T04:57:37.671Z,1000.47
2018-11-28T04:58:37.655Z,1000.41
2018-11-28T04:59:37.701Z,1000.46
2018-11-28T05:00:37.649Z,1000.44
2018-11-28T05:01:37.628Z,1000.43
2018-11-28T05:02:37.632Z,1000.38
2018-11-28T05:03:37.607Z,1000.43
2018-11-28T05:04:37.605Z,1000.41
2018-11-28T05:05:37.703Z,1000.44
2018-11-28T05:06:37.581Z,1000.45
2018-11-28T05:07:37.575Z,1000.46
2018-11-28T05:08:37.598Z,1000.48
2018-11-28T05:09:37.546Z,1000.40
2018-11-28T05:10:37.546Z,1000.47
2018-11-28T05:11:37.571Z,1000.45
2018-11-28T05:12:37.531Z,1000.50
2018-11-28T05:13:37.500Z,1000.50
2018-11-28T05:14:37.492Z,1000.49
2018-11-28T05:15:37.511Z,1000.43
2018-11-28T05:16:37.532Z,1000.38
2018-11-28T05:17:37.524Z,1000.45
2018-11-28T05:18:37.475Z,1000.39
2018-11-28T05:19:37.454Z,1000.43
2018-11-28T05:20:37.439Z,1000.39
2018-11-28T05:21:37.443Z,1000.36
2018-11-28T05:22:37.410Z,1000.30
2018-11-28T05:23:37.441Z,1000.31
2018-11-28T05:24:37.395Z,1000.32
2018-11-28T05:25:37.377Z,1000.32
2018-11-28T05:26:37.367Z,1000.37
2018-11-28T05:27:37.358Z,1000.32
2018-11-28T05:28:37.365Z,1000.29
2018-11-28T05:29:37.401Z,1000.35
2018-11-28T05:30:37.331Z,1000.32
2018-11-28T05:31:37.312Z,1000.29
2018-11-28T05:32:37.296Z,1000.38
2018-11-28T05:33:37.297Z,1000.40
2018-11-28T05:34:37.289Z,1000.36
2018-11-28T05:35:37.773Z,1000.36
2018-11-28T05:36:37.260Z,1000.37
2018-11-28T05:37:37.245Z,1000.40
2018-11-28T05:38:37.230Z,1000.37
2018-11-28T05:39:37.240Z,1000.39
2018-11-28T05:40:37.224Z,1000.44
2018-11-28T05:41:37.238Z,1000.41
2018-11-28T05:42:37.186Z,1000.45
2018-11-28T05:43:37.175Z,1000.39
2018-11-28T05:44:37.171Z,1000.45
2018-11-28T05:45:37.156Z,1000.46
2018-11-28T05:46:37.156Z,1000.43
2018-11-28T05:47:37.188Z,1000.44
2018-11-28T05:48:37.130Z,1000.37
2018-11-28T05:49:37.138Z,1000.39
2018-11-28T05:50:37.119Z,1000.40
2018-11-28T05:51:37.115Z,1000.38
2018-11-28T05:52:37.105Z,1000.39
2018-11-28T05:53:37.124Z,1000.47
2018-11-28T05:54:37.065Z,1000.46
2018-11-28T05:55:37.051Z,1000.44
2018-11-28T05:56:37.059Z,1000.43
2018-11-28T05:57:37.042Z,1000.46
2018-11-28T05:58:37.054Z,1000.48
2018-11-28T05:59:37.052Z,1000.47
2018-11-28T06:00:37.008Z,1000.40
2018-11-28T06:01:36.989Z,1000.39
2018-11-28T06:02:36.981Z,1000.48
2018-11-28T06:03:36.974Z,1000.44
2018-11-28T06:04:36.956Z,1000.44
2018-11-28T06:05:36.999Z,1000.44
2018-11-28T06:06:36.948Z,1000.33
2018-11-28T06:07:36.937Z,1000.41
2018-11-28T06:08:36.919Z,1000.34
2018-11-28T06:09:36.919Z,1000.40
2018-11-28T06:10:36.902Z,1000.38
2018-11-28T06:11:36.959Z,1000.40
2018-11-28T06:12:36.881Z,1000.38
2018-11-28T06:13:36.871Z,1000.31
2018-11-28T06:14:36.854Z,1000.40
2018-11-28T06:15:36.840Z,1000.37
2018-11-28T06:16:36.893Z,1000.39
2018-11-28T06:17:36.880Z,1000.40
2018-11-28T06:18:36.853Z,1000.40
2018-11-28T06:19:36.801Z,1000.40
2018-11-28T06:20:36.803Z,1000.38
2018-11-28T06:21:36.778Z,1000.37
2018-11-28T06:22:36.765Z,1000.31
2018-11-28T06:23:36.821Z,1000.41
2018-11-28T06:24:36.742Z,1000.31
2018-11-28T06:25:36.733Z,1000.36
2018-11-28T06:26:36.720Z,1000.40
2018-11-28T06:27:36.711Z,1000.34
2018-11-28T06:28:36.716Z,1000.32
2018-11-28T06:29:36.742Z,1000.33
2018-11-28T06:30:36.684Z,1000.33
2018-11-28T06:31:36.668Z,1000.28
2018-11-28T06:32:36.661Z,1000.28
2018-11-28T06:33:36.643Z,1000.23
2018-11-28T06:34:36.648Z,1000.24
2018-11-28T06:35:36.700Z,1000.24
2018-11-28T06:36:36.646Z,1000.20
2018-11-28T06:37:36.622Z,1000.22
2018-11-28T06:38:36.605Z,1000.27
2018-11-28T06:39:36.579Z,1000.23
2018-11-28T06:40:36.570Z,1000.25
2018-11-28T06:41:36.604Z,1000.23
2018-11-28T06:42:36.554Z,1000.19
2018-11-28T06:43:36.544Z,1000.27
2018-11-28T06:44:36.722Z,1000.32
2018-11-28T06:45:36.571Z,1000.25
2018-11-28T06:46:36.505Z,1000.33
2018-11-28T06:47:36.538Z,1000.37
2018-11-28T06:48:36.511Z,1000.40
2018-11-28T06:49:36.475Z,1000.38
2018-11-28T06:50:36.465Z,1000.39
2018-11-28T06:51:36.532Z,1000.40
2018-11-28T06:52:36.481Z,1000.43
2018-11-28T06:53:36.496Z,1000.47
2018-11-28T06:54:36.435Z,1000.39
2018-11-28T06:55:36.445Z,1000.41
2018-11-28T06:56:36.413Z,1000.43
2018-11-28T06:57:36.394Z,1000.38
2018-11-28T06:58:36.384Z,1000.58
2018-11-28T06:59:36.418Z,1000.52
2018-11-28T07:00:36.365Z,1000.53
2018-11-28T07:01:36.346Z,1000.56
2018-11-28T07:02:36.340Z,1000.54
2018-11-28T07:03:36.329Z,1000.52
2018-11-28T07:04:36.333Z,1000.39
2018-11-28T07:05:36.401Z,1000.53
2018-11-28T07:06:36.304Z,1000.55
2018-11-28T07:07:36.285Z,1000.59
2018-11-28T07:08:36.271Z,1000.54
2018-11-28T07:09:36.259Z,1000.57
2018-11-28T07:10:36.285Z,1000.65
2018-11-28T07:11:36.295Z,1000.63
2018-11-28T07:12:36.228Z,1000.62
2018-11-28T07:13:36.224Z,1000.67
2018-11-28T07:14:36.211Z,1000.72
2018-11-28T07:15:36.196Z,1000.70
2018-11-28T07:16:36.182Z,1000.65
2018-11-28T07:17:36.460Z,1000.66
2018-11-28T07:18:36.235Z,1000.66
2018-11-28T07:19:36.166Z,1000.74
2018-11-28T07:20:36.178Z,1000.71
2018-11-28T07:21:36.134Z,1000.76
2018-11-28T07:22:36.128Z,1000.79
2018-11-28T07:23:36.300Z,1000.86
2018-11-28T07:24:36.096Z,1000.86
2018-11-28T07:25:36.122Z,1000.87
2018-11-28T07:26:36.105Z,1000.85
2018-11-28T07:27:36.070Z,1000.90
2018-11-28T07:28:36.063Z,1000.97
2018-11-28T07:29:36.090Z,1000.89
2018-11-28T07:30:37.828Z,1000.91
2018-11-28T07:31:36.081Z,1000.89
2018-11-28T07:32:36.019Z,1001.01
2018-11-28T07:33:36.004Z,1000.94
2018-11-28T07:34:36.042Z,1001.02
2018-11-28T07:35:36.060Z,1000.99
2018-11-28T07:36:36.019Z,1001.02
2018-11-28T07:37:35.958Z,1001.03
2018-11-28T07:38:35.996Z,1001.05
2018-11-28T07:39:35.946Z,1001.06
2018-11-28T07:40:35.929Z,1001.00
2018-11-28T07:41:35.979Z,1001.10
2018-11-28T07:42:35.965Z,1001.06
2018-11-28T07:43:35.911Z,1001.01
2018-11-28T07:44:35.893Z,1000.99
2018-11-28T07:45:35.895Z,1001.06
2018-11-28T07:46:35.860Z,1001.07
2018-11-28T07:47:35.886Z,1001.06
2018-11-28T07:48:35.856Z,1001.09
2018-11-28T07:49:35.851Z,1001.11
2018-11-28T07:50:35.822Z,1001.10
2018-11-28T07:51:35.811Z,1000.92
2018-11-28T07:52:35.795Z,1000.98
2018-11-28T07:53:35.846Z,1000.99
2018-11-28T07:54:35.774Z,1001.03
2018-11-28T07:55:35.772Z,1000.97
2018-11-28T07:56:35.753Z,1001.06
2018-11-28T07:57:35.746Z,1001.11
2018-11-28T07:58:35.732Z,1001.09
2018-11-28T07:59:35.784Z,1001.05
2018-11-28T08:00:35.738Z,1001.07
2018-11-28T08:01:35.720Z,1001.09
2018-11-28T08:02:35.683Z,1001.02
2018-11-28T08:03:35.677Z,1001.08
2018-11-28T08:04:35.666Z,1001.04
2018-11-28T08:05:35.699Z,1000.99
2018-11-28T08:06:35.646Z,1001.05
2018-11-28T08:07:35.633Z,1001.05
2018-11-28T08:08:35.637Z,1001.08
2018-11-28T08:09:35.606Z,1001.04
2018-11-28T08:10:35.640Z,1001.01
2018-11-28T08:11:35.661Z,1001.05
2018-11-28T08:12:35.584Z,1001.05
2018-11-28T08:13:35.571Z,1001.02
2018-11-28T08:14:35.556Z,1001.11
2018-11-28T08:15:35.545Z,1001.12
2018-11-28T08:16:35.529Z,1001.11
2018-11-28T08:17:36.339Z,1001.12
2018-11-28T08:18:35.522Z,1001.06
2018-11-28T08:19:35.498Z,1001.10
2018-11-28T08:20:35.486Z,1001.11
2018-11-28T08:21:35.487Z,1001.15
2018-11-28T08:22:36.239Z,1001.20
2018-11-28T08:23:35.506Z,1001.18
2018-11-28T08:24:35.473Z,1001.18
2018-11-28T08:25:35.497Z,1001.13
2018-11-28T08:26:35.451Z,1001.20
2018-11-28T08:27:35.413Z,1001.23
2018-11-28T08:28:36.147Z,1001.19
2018-11-28T08:29:35.438Z,1001.21
2018-11-28T08:30:35.378Z,1001.18
2018-11-28T08:31:35.370Z,1001.30
2018-11-28T08:32:35.362Z,1001.20
2018-11-28T08:33:35.347Z,1001.13
2018-11-28T08:34:35.350Z,1001.17
2018-11-28T08:35:35.418Z,1001.08
2018-11-28T08:36:35.312Z,1001.12
2018-11-28T08:37:35.312Z,1001.18
2018-11-28T08:38:35.300Z,1001.11
2018-11-28T08:39:35.286Z,1001.08
2018-11-28T08:40:35.276Z,1000.99
2018-11-28T08:41:35.318Z,1001.01
2018-11-28T08:42:35.260Z,1001.04
2018-11-28T08:43:35.256Z,1001.00
2018-11-28T08:44:35.236Z,1001.01
2018-11-28T08:45:35.218Z,1001.06
2018-11-28T08:46:35.207Z,1001.08
2018-11-28T08:47:35.248Z,1001.10
2018-11-28T08:48:35.243Z,1001.05
2018-11-28T08:49:35.173Z,1001.07
2018-11-28T08:50:35.181Z,1001.02
2018-11-28T08:51:35.151Z,1000.96
2018-11-28T08:52:35.154Z,1000.98
2018-11-28T08:53:35.197Z,1001.01
2018-11-28T08:54:35.121Z,1001.02
2018-11-28T08:55:35.112Z,1000.95
2018-11-28T08:56:35.103Z,1000.94
2018-11-28T08:57:35.106Z,1000.88
2018-11-28T08:58:35.359Z,1000.92
2018-11-28T08:59:35.109Z,1000.89
2018-11-28T09:00:35.059Z,1000.94
2018-11-28T09:01:35.044Z,1001.02
2018-11-28T09:02:35.037Z,1000.93
2018-11-28T09:03:35.049Z,1000.99
2018-11-28T09:04:35.020Z,1000.96
2018-11-28T09:05:35.053Z,1000.99
2018-11-28T09:06:34.998Z,1001.08
2018-11-28T09:07:34.988Z,1001.01
2018-11-28T09:08:34.975Z,1001.03
2018-11-28T09:09:34.964Z,1001.08
2018-11-28T09:10:34.966Z,1001.07
2018-11-28T09:11:34.982Z,1000.97
2018-11-28T09:12:34.959Z,1001.06
2018-11-28T09:13:34.943Z,1001.08
2018-11-28T09:14:34.911Z,1001.12
2018-11-28T09:15:34.897Z,1001.00
2018-11-28T09:16:34.884Z,1001.02
2018-11-28T09:17:34.927Z,1001.01
2018-11-28T09:18:34.884Z,1001.03
2018-11-28T09:19:34.852Z,1001.04
2018-11-28T09:20:34.843Z,1001.02
2018-11-28T09:21:34.833Z,1001.04
2018-11-28T09:22:34.828Z,1001.00
2018-11-28T09:23:34.867Z,1001.02
2018-11-28T09:24:34.811Z,1001.03
2018-11-28T09:25:34.784Z,1001.03
2018-11-28T09:26:34.778Z,1001.05
2018-11-28T09:27:34.766Z,1001.05
2018-11-28T09:28:34.771Z,1001.09
2018-11-28T09:29:34.778Z,1001.07
2018-11-28T09:30:34.739Z,1001.07
2018-11-28T09:31:34.721Z,1001.10
2018-11-28T09:32:34.713Z,1001.08
2018-11-28T09:33:34.707Z,1001.05
2018-11-28T09:34:34.688Z,1001.09
2018-11-28T09:35:34.732Z,1001.01
2018-11-28T09:36:34.690Z,1001.01
2018-11-28T09:37:34.659Z,1001.17
2018-11-28T09:38:34.647Z,1001.05
2018-11-28T09:39:34.635Z,1001.10
2018-11-28T09:40:34.623Z,1001.10
2018-11-28T09:41:34.649Z,1001.08
2018-11-28T09:42:34.602Z,1001.09
2018-11-28T09:43:34.616Z,1001.03
2018-11-28T09:44:34.596Z,1001.03
2018-11-28T09:45:34.572Z,1001.08
2018-11-28T09:46:34.569Z,1001.04
2018-11-28T09:47:34.589Z,1001.07
2018-11-28T09:48:34.541Z,1001.05
2018-11-28T09:49:34.526Z,1001.08
2018-11-28T09:50:34.529Z,1000.95
2018-11-28T09:51:34.521Z,1001.03
2018-11-28T09:52:34.497Z,1001.03
2018-11-28T09:53:34.541Z,1001.01
2018-11-28T09:54:34.473Z,1001.01
2018-11-28T09:55:34.465Z,1000.97
2018-11-28T09:56:34.467Z,1001.07
2018-11-28T09:57:34.440Z,1001.08
2018-11-28T09:58:34.435Z,1000.98
2018-11-28T09:59:34.463Z,1001.05
2018-11-28T10:00:34.407Z,1000.98
2018-11-28T10:01:34.541Z,1001.02
2018-11-28T10:02:34.421Z,1001.05
2018-11-28T10:03:34.372Z,1001.03
2018-11-28T10:04:34.363Z,1001.02
2018-11-28T10:05:34.405Z,1001.05
2018-11-28T10:06:34.345Z,1001.01
2018-11-28T10:07:34.337Z,1001.11
2018-11-28T10:08:34.339Z,1001.05
2018-11-28T10:09:34.311Z,1001.01
2018-11-28T10:10:34.296Z,1001.00
2018-11-28T10:11:34.345Z,1000.97
2018-11-28T10:12:34.273Z,1001.02
2018-11-28T10:13:34.263Z,1000.97
2018-11-28T10:14:34.280Z,1000.99
2018-11-28T10:15:35.778Z,1000.98
2018-11-28T10:16:34.237Z,1000.94
2018-11-28T10:17:34.288Z,1000.93
2018-11-28T10:18:34.214Z,1000.94
2018-11-28T10:19:34.197Z,1000.89
2018-11-28T10:20:34.194Z,1000.97
2018-11-28T10:21:34.197Z,1000.93
2018-11-28T10:22:34.167Z,1000.87
2018-11-28T10:23:34.228Z,1000.93
2018-11-28T10:24:34.446Z,1000.84
2018-11-28T10:25:34.139Z,1000.89
2018-11-28T10:26:34.122Z,1000.85
2018-11-28T10:27:34.124Z,1000.81
2018-11-28T10:28:34.104Z,1000.84
2018-11-28T10:29:34.142Z,1000.72
2018-11-28T10:30:34.085Z,1000.82
2018-11-28T10:31:34.074Z,1000.66
2018-11-28T10:32:34.060Z,1000.76
2018-11-28T10:33:34.065Z,1000.72
2018-11-28T10:34:34.038Z,1000.74
2018-11-28T10:35:34.057Z,1000.75
2018-11-28T10:36:34.036Z,1000.77
2018-11-28T10:37:34.010Z,1000.76
2018-11-28T10:38:34.028Z,1000.77
2018-11-28T10:39:33.982Z,1000.74
2018-11-28T10:40:34.004Z,1000.78
2018-11-28T10:41:34.002Z,1000.66
2018-11-28T10:42:33.947Z,1000.69
2018-11-28T10:43:33.942Z,1000.68
2018-11-28T10:44:33.952Z,1000.68
2018-11-28T10:45:33.921Z,1000.68
2018-11-28T10:46:33.912Z,1000.60
2018-11-28T10:47:33.959Z,1000.68
2018-11-28T10:48:33.882Z,1000.61
2018-11-28T10:49:33.873Z,1000.66
2018-11-28T10:50:33.862Z,1000.64
2018-11-28T10:51:33.854Z,1000.65
2018-11-28T10:52:33.851Z,1000.54
2018-11-28T10:53:33.870Z,1000.58
2018-11-28T10:54:33.815Z,1000.58
2018-11-28T10:55:33.806Z,1000.60
2018-11-28T10:56:33.792Z,1000.53
2018-11-28T10:57:33.783Z,1000.55
2018-11-28T10:58:33.777Z,1000.51
2018-11-28T10:59:33.814Z,1000.59
2018-11-28T11:00:33.752Z,1000.59
2018-11-28T11:01:33.741Z,1000.56
2018-11-28T11:02:33.727Z,1000.62
2018-11-28T11:03:33.719Z,1000.56
2018-11-28T11:04:33.716Z,1000.64
2018-11-28T11:05:33.775Z,1000.54
2018-11-28T11:06:33.687Z,1000.55
2018-11-28T11:07:33.674Z,1000.49
2018-11-28T11:08:33.664Z,1000.53
2018-11-28T11:09:33.657Z,1000.58
2018-11-28T11:10:33.639Z,1000.52
2018-11-28T11:11:33.699Z,1000.57
2018-11-28T11:12:33.620Z,1000.60
2018-11-28T11:13:33.609Z,1000.55
2018-11-28T11:14:33.599Z,1000.57
2018-11-28T11:15:33.587Z,1000.60
2018-11-28T11:16:33.665Z,1000.58
2018-11-28T11:17:33.603Z,1000.58
2018-11-28T11:18:33.563Z,1000.63
2018-11-28T11:19:33.564Z,1000.51
2018-11-28T11:20:33.535Z,1000.53
2018-11-28T11:21:33.521Z,1000.57
2018-11-28T11:22:33.517Z,1000.50
2018-11-28T11:23:33.544Z,1000.47
2018-11-28T11:24:33.492Z,1000.45
2018-11-28T11:25:33.476Z,1000.42
2018-11-28T11:26:33.468Z,1000.44
2018-11-28T11:27:33.491Z,1000.47
2018-11-28T11:28:33.450Z,1000.53
2018-11-28T11:29:33.480Z,1000.54
2018-11-28T11:30:33.428Z,1000.46
2018-11-28T11:31:33.891Z,1000.48
2018-11-28T11:32:33.406Z,1000.43
2018-11-28T11:33:33.408Z,1000.44
2018-11-28T11:34:33.432Z,1000.43
2018-11-28T11:35:33.414Z,1000.40
2018-11-28T11:36:33.372Z,1000.43
2018-11-28T11:37:33.364Z,1000.38
2018-11-28T11:38:33.367Z,1000.42
2018-11-28T11:39:33.334Z,1000.44
2018-11-28T11:40:33.335Z,1000.43
2018-11-28T11:41:33.337Z,1000.44
2018-11-28T11:42:33.306Z,1000.36
2018-11-28T11:43:33.288Z,1000.40
2018-11-28T11:44:33.286Z,1000.41
2018-11-28T11:45:33.257Z,1000.39
2018-11-28T11:46:33.259Z,1000.36
2018-11-28T11:47:33.285Z,1000.34
2018-11-28T11:48:33.232Z,1000.33
2018-11-28T11:49:33.221Z,1000.33
2018-11-28T11:50:33.267Z,1000.26
2018-11-28T11:51:33.190Z,1000.21
2018-11-28T11:52:33.192Z,1000.26
2018-11-28T11:53:33.211Z,1000.26
2018-11-28T11:54:33.156Z,1000.22
2018-11-28T11:55:33.940Z,1000.26
2018-11-28T11:56:33.282Z,1000.19
2018-11-28T11:57:33.131Z,1000.19
2018-11-28T11:58:33.119Z,1000.15
2018-11-28T11:59:33.305Z,1000.21
2018-11-28T12:00:33.097Z,1000.32
2018-11-28T12:01:33.108Z,1000.24
2018-11-28T12:02:33.126Z,1000.27
2018-11-28T12:03:33.066Z,1000.27
2018-11-28T12:04:33.048Z,1000.25
2018-11-28T12:05:33.092Z,1000.28